createdAt,value
2022-10-16T00:01:29.078Z,93.64
2022-10-16T00:03:56.456Z,93.67
2022-10-16T00:06:23.464Z,93.22
2022-10-16T00:08:51.040Z,93.33
2022-10-16T00:11:23.173Z,93.11
2022-10-16T00:13:51.967Z,92.88
2022-10-16T00:16:19.482Z,92.58
2022-10-16T00:18:46.755Z,92.89
2022-10-16T00:21:23.489Z,93.07
2022-10-16T00:24:00.076Z,92.59
2022-10-16T00:26:27.969Z,93.02
2022-10-16T00:28:54.463Z,92.98
2022-10-16T00:31:22.859Z,92.87
2022-10-16T00:33:50.285Z,93.01
2022-10-16T00:36:19.558Z,93.17
2022-10-16T00:38:46.489Z,93.25
2022-10-16T00:41:18.225Z,93.49
2022-10-16T00:43:47.143Z,93.37
2022-10-16T00:46:20.757Z,93.27
2022-10-16T00:48:58.499Z,93.53
2022-10-16T00:51:32.389Z,93.15
2022-10-16T00:53:59.824Z,93.41
2022-10-16T00:56:26.887Z,93.28
2022-10-16T00:58:53.442Z,93.21
2022-10-16T01:01:20.292Z,93.42
2022-10-16T01:03:46.792Z,93.28
2022-10-16T01:06:36.395Z,93.44
2022-10-16T01:09:08.061Z,93.57
2022-10-16T01:11:42.720Z,93.41
2022-10-16T01:14:20.767Z,93.47
2022-10-16T01:17:01.581Z,93.47
2022-10-16T01:20:02.435Z,93.67
2022-10-16T01:22:39.675Z,93.70
2022-10-16T01:25:13.488Z,93.84
2022-10-16T01:27:42.321Z,93.76
2022-10-16T01:30:15.001Z,93.76
2022-10-16T01:33:25.404Z,94.17
2022-10-16T01:36:00.658Z,94.13
2022-10-16T01:38:33.322Z,94.36
2022-10-16T01:41:05.017Z,94.42
2022-10-16T01:43:47.405Z,94.35
2022-10-16T01:46:19.354Z,94.48
2022-10-16T01:48:46.754Z,94.10
2022-10-16T01:51:16.253Z,94.49
2022-10-16T01:53:47.516Z,94.66
2022-10-16T01:56:16.321Z,94.54
2022-10-16T01:58:48.451Z,94.72
2022-10-16T02:01:17.792Z,94.81
2022-10-16T02:03:46.993Z,95.04
2022-10-16T02:06:13.388Z,95.39
2022-10-16T02:08:41.416Z,95.33
2022-10-16T02:11:07.935Z,95.14
2022-10-16T02:13:42.238Z,95.67
2022-10-16T02:16:11.224Z,95.40
2022-10-16T02:18:37.662Z,95.47
2022-10-16T02:21:10.810Z,95.69
2022-10-16T02:23:53.388Z,95.63
2022-10-16T02:26:31.331Z,95.67
2022-10-16T02:29:07.319Z,95.43
2022-10-16T02:31:37.072Z,95.86
2022-10-16T02:34:06.715Z,95.65
2022-10-16T02:36:35.707Z,95.65
2022-10-16T02:39:04.708Z,95.33
2022-10-16T02:41:32.062Z,95.49
2022-10-16T02:43:58.429Z,95.55
2022-10-16T02:46:24.883Z,95.57
2022-10-16T02:48:51.328Z,95.71
2022-10-16T02:51:17.767Z,95.44
2022-10-16T02:53:44.187Z,95.55
2022-10-16T02:56:10.822Z,95.84
2022-10-16T02:58:37.214Z,95.60
2022-10-16T03:01:03.745Z,95.74
2022-10-16T03:03:30.288Z,95.57
2022-10-16T03:05:56.642Z,95.66
2022-10-16T03:08:24.633Z,95.77
2022-10-16T03:10:51.868Z,95.67
2022-10-16T03:13:21.212Z,95.84
2022-10-16T03:15:47.603Z,95.86
2022-10-16T03:18:14.037Z,95.97
2022-10-16T03:20:40.457Z,95.85
2022-10-16T03:23:09.067Z,95.79
2022-10-16T03:25:35.659Z,95.85
2022-10-16T03:28:02.539Z,95.63
2022-10-16T03:30:29.276Z,96.07
2022-10-16T03:32:55.734Z,96.06
2022-10-16T03:35:23.386Z,95.79
2022-10-16T03:37:50.168Z,96.21
2022-10-16T03:40:17.490Z,96.46
2022-10-16T03:42:44.862Z,96.56
2022-10-16T03:45:11.997Z,96.55
2022-10-16T03:47:38.484Z,96.51
2022-10-16T03:50:05.725Z,96.67
2022-10-16T03:52:33.018Z,96.63
2022-10-16T03:54:59.708Z,96.67
2022-10-16T03:57:26.286Z,96.66
2022-10-16T03:59:52.931Z,96.74
2022-10-16T04:02:19.347Z,96.66
2022-10-16T04:04:45.696Z,96.40
2022-10-16T04:07:12.072Z,96.80
2022-10-16T04:09:38.620Z,96.50
2022-10-16T04:12:04.989Z,96.75
2022-10-16T04:14:31.478Z,96.71
2022-10-16T04:16:57.829Z,96.77
2022-10-16T04:19:24.372Z,96.96
2022-10-16T04:21:50.781Z,96.70
2022-10-16T04:24:17.147Z,96.50
2022-10-16T04:26:43.506Z,96.83
2022-10-16T04:29:09.913Z,96.88
2022-10-16T04:31:36.370Z,97.13
2022-10-16T04:34:02.865Z,96.87
2022-10-16T04:36:29.465Z,97.32
2022-10-16T04:38:56.012Z,97.31
2022-10-16T04:41:22.464Z,97.17
2022-10-16T04:43:48.873Z,97.31
2022-10-16T04:46:15.245Z,97.65
2022-10-16T04:48:41.631Z,97.38
2022-10-16T04:51:08.007Z,97.56
2022-10-16T04:53:35.196Z,97.53
2022-10-16T04:56:01.546Z,97.40
2022-10-16T04:58:27.914Z,97.59
2022-10-16T05:00:54.364Z,97.44
2022-10-16T05:03:20.945Z,97.36
2022-10-16T05:05:48.180Z,97.56
2022-10-16T05:08:15.744Z,97.26
2022-10-16T05:10:44.085Z,97.47
2022-10-16T05:13:11.447Z,97.89
2022-10-16T05:15:37.947Z,97.58
2022-10-16T05:18:04.390Z,98.05
2022-10-16T05:20:30.876Z,97.86
2022-10-16T05:22:57.300Z,97.99
2022-10-16T05:25:23.720Z,98.38
2022-10-16T05:27:50.697Z,98.07
2022-10-16T05:30:18.436Z,98.11
2022-10-16T05:32:49.762Z,98.12
2022-10-16T05:35:16.939Z,98.21
2022-10-16T05:37:45.011Z,98.28
2022-10-16T05:40:12.732Z,98.20
2022-10-16T05:42:39.625Z,98.05
2022-10-16T05:45:07.390Z,98.08
2022-10-16T05:47:33.764Z,98.14
2022-10-16T05:50:00.123Z,98.04
2022-10-16T05:52:27.809Z,98.20
2022-10-16T05:54:54.213Z,98.27
2022-10-16T05:57:20.966Z,98.18
2022-10-16T05:59:47.425Z,97.92
2022-10-16T06:02:14.914Z,97.87
2022-10-16T06:04:41.534Z,97.56
2022-10-16T06:07:07.952Z,97.84
2022-10-16T06:09:34.349Z,97.92
2022-10-16T06:12:00.784Z,97.75
2022-10-16T06:14:27.150Z,97.52
2022-10-16T06:16:53.528Z,97.68
2022-10-16T06:19:19.931Z,97.39
2022-10-16T06:21:46.313Z,97.35
2022-10-16T06:24:12.715Z,97.32
2022-10-16T06:26:39.522Z,97.29
2022-10-16T06:29:06.095Z,96.99
2022-10-16T06:31:34.239Z,96.89
2022-10-16T06:34:01.629Z,96.77
2022-10-16T06:36:28.569Z,96.77
2022-10-16T06:38:55.145Z,96.40
2022-10-16T06:41:23.002Z,95.95
2022-10-16T06:43:49.654Z,95.59
2022-10-16T06:46:18.379Z,95.10
2022-10-16T06:48:44.822Z,95.21
2022-10-16T06:51:13.522Z,95.38
2022-10-16T06:54:01.740Z,95.27
2022-10-16T06:56:31.580Z,95.24
2022-10-16T06:58:58.119Z,94.94
2022-10-16T07:01:25.341Z,94.95
2022-10-16T07:03:51.866Z,94.95
2022-10-16T07:06:21.285Z,94.62
2022-10-16T07:08:48.545Z,94.59
2022-10-16T07:11:18.832Z,94.48
2022-10-16T07:13:50.758Z,94.37
2022-10-16T07:16:22.800Z,94.14
2022-10-16T07:18:50.101Z,94.07
2022-10-16T07:21:20.266Z,93.86
2022-10-16T07:23:50.774Z,93.80
2022-10-16T07:26:17.252Z,93.20
2022-10-16T07:28:44.671Z,93.56
2022-10-16T07:31:14.199Z,93.51
2022-10-16T07:33:44.011Z,93.31
2022-10-16T07:36:15.835Z,92.97
2022-10-16T07:38:43.534Z,92.74
2022-10-16T07:41:15.714Z,92.45
2022-10-16T07:43:49.985Z,91.72
2022-10-16T07:46:17.492Z,91.24
2022-10-16T07:48:47.130Z,91.19
2022-10-16T07:51:24.706Z,91.42
2022-10-16T07:53:52.093Z,91.62
2022-10-16T07:56:19.642Z,91.73
2022-10-16T07:58:46.647Z,91.74
2022-10-16T08:01:15.292Z,91.79
2022-10-16T08:03:47.098Z,91.70
2022-10-16T08:06:13.834Z,91.38
2022-10-16T08:08:40.688Z,91.58
2022-10-16T08:11:07.101Z,90.94
2022-10-16T08:13:33.499Z,90.29
2022-10-16T08:16:00.265Z,89.59
2022-10-16T08:18:26.661Z,89.32
2022-10-16T08:20:57.779Z,88.97
2022-10-16T08:23:26.666Z,88.51
2022-10-16T08:25:56.792Z,88.24
2022-10-16T08:28:24.055Z,88.09
2022-10-16T08:30:50.677Z,87.64
2022-10-16T08:33:17.155Z,87.41
2022-10-16T08:35:43.529Z,87.79
2022-10-16T08:38:10.084Z,87.56
2022-10-16T08:40:38.444Z,87.14
2022-10-16T08:43:20.063Z,87.21
2022-10-16T08:46:23.433Z,87.28
2022-10-16T08:48:55.738Z,87.31
2022-10-16T08:51:29.012Z,87.33
2022-10-16T08:54:00.316Z,87.21
2022-10-16T08:56:27.323Z,86.77
2022-10-16T08:58:58.098Z,86.78
2022-10-16T09:01:42.398Z,86.65
2022-10-16T09:04:43.586Z,86.40
2022-10-16T09:07:31.297Z,86.20
2022-10-16T09:10:26.337Z,85.71
2022-10-16T09:13:03.561Z,85.96
2022-10-16T09:15:55.901Z,86.04
2022-10-16T09:18:48.329Z,86.14
2022-10-16T09:21:26.387Z,85.96
2022-10-16T09:23:54.793Z,85.79
2022-10-16T09:28:53.401Z,85.35
2022-10-16T09:31:22.550Z,85.54
2022-10-16T09:34:07.512Z,86.01
2022-10-16T09:36:43.944Z,86.03
2022-10-16T09:39:12.936Z,85.99
2022-10-16T09:41:45.952Z,86.11
2022-10-16T09:44:22.293Z,85.73
2022-10-16T09:46:48.682Z,85.64
2022-10-16T09:49:26.303Z,86.08
2022-10-16T09:52:04.997Z,86.11
2022-10-16T09:54:31.388Z,85.56
2022-10-16T09:57:13.398Z,85.60
2022-10-16T09:59:54.097Z,85.00
2022-10-16T10:02:36.716Z,83.86
2022-10-16T10:05:18.341Z,82.94
2022-10-16T10:07:46.868Z,81.79
2022-10-16T10:10:30.866Z,80.35
2022-10-16T10:12:58.000Z,79.90
2022-10-16T10:15:25.468Z,79.65
2022-10-16T10:17:58.183Z,78.91
2022-10-16T10:20:28.294Z,78.96
2022-10-16T10:22:56.534Z,79.25
2022-10-16T10:25:32.135Z,79.63
2022-10-16T10:28:36.252Z,79.66
2022-10-16T10:31:32.286Z,79.35
2022-10-16T10:34:10.908Z,79.72
2022-10-16T10:36:40.454Z,79.64
2022-10-16T10:39:15.105Z,79.04
2022-10-16T10:42:07.802Z,78.64
2022-10-16T10:44:49.349Z,78.88
2022-10-16T10:47:34.554Z,78.74
2022-10-16T10:50:39.492Z,79.19
2022-10-16T10:53:36.418Z,79.24
2022-10-16T10:56:41.503Z,79.53
2022-10-16T10:59:23.033Z,79.36
2022-10-16T11:01:59.970Z,79.14
2022-10-16T11:04:44.888Z,78.83
2022-10-16T11:07:36.109Z,78.63
2022-10-16T11:10:28.062Z,78.31
2022-10-16T11:13:16.613Z,77.91
2022-10-16T11:15:45.291Z,77.91
2022-10-16T11:18:26.137Z,77.48
2022-10-16T11:21:00.031Z,76.91
2022-10-16T11:23:32.176Z,76.61
2022-10-16T11:26:03.049Z,76.56
2022-10-16T11:28:39.248Z,76.02
2022-10-16T11:31:20.602Z,75.05
2022-10-16T11:33:55.966Z,73.45
2022-10-16T11:36:41.506Z,71.49
2022-10-16T11:39:07.842Z,69.92
2022-10-16T11:41:44.581Z,68.50
2022-10-16T11:44:32.423Z,66.27
2022-10-16T11:47:28.817Z,62.58
2022-10-16T11:49:58.637Z,62.00
2022-10-16T11:52:49.472Z,60.70
2022-10-16T11:55:20.891Z,59.60
2022-10-16T12:00:31.931Z,58.89
2022-10-16T12:03:10.632Z,57.66
2022-10-16T12:06:11.841Z,55.29
2022-10-16T12:08:38.524Z,54.51
2022-10-16T12:11:10.964Z,53.68
2022-10-16T12:13:40.295Z,52.96
2022-10-16T12:16:13.015Z,52.63
2022-10-16T12:18:45.555Z,52.06
2022-10-16T12:21:16.664Z,52.47
2022-10-16T12:23:54.809Z,51.63
2022-10-16T12:26:29.950Z,52.14
2022-10-16T12:28:58.006Z,52.19
2022-10-16T12:31:49.789Z,52.58
2022-10-16T12:34:30.219Z,51.96
2022-10-16T12:37:07.859Z,51.21
2022-10-16T12:39:34.357Z,52.27
2022-10-16T12:42:06.915Z,53.50
2022-10-16T12:44:36.674Z,53.82
2022-10-16T12:47:03.967Z,54.76
2022-10-16T12:49:36.470Z,55.91
2022-10-16T12:52:02.923Z,57.08
2022-10-16T12:54:32.633Z,57.42
2022-10-16T12:57:30.609Z,56.77
2022-10-16T13:00:09.828Z,55.82
2022-10-16T13:03:00.873Z,55.85
2022-10-16T13:05:33.249Z,55.62
2022-10-16T13:08:11.873Z,54.33
2022-10-16T13:10:54.288Z,53.85
2022-10-16T13:13:39.487Z,52.74
2022-10-16T13:16:18.028Z,51.98
2022-10-16T13:18:56.480Z,52.34
2022-10-16T13:21:38.225Z,52.62
2022-10-16T13:24:23.036Z,52.01
2022-10-16T13:27:04.588Z,51.27
2022-10-16T13:29:32.817Z,51.04
2022-10-16T13:32:01.673Z,50.62
2022-10-16T13:34:28.876Z,47.75
2022-10-16T13:36:55.334Z,48.28
2022-10-16T13:39:30.245Z,48.72
2022-10-16T13:42:08.884Z,47.45
2022-10-16T13:44:46.864Z,47.25
2022-10-16T13:47:21.378Z,47.33
2022-10-16T13:49:59.833Z,47.60
2022-10-16T13:52:26.314Z,48.25
2022-10-16T13:54:52.854Z,48.64
2022-10-16T13:57:27.288Z,48.77
2022-10-16T13:59:55.705Z,49.55
2022-10-16T14:02:30.476Z,50.01
2022-10-16T14:04:58.486Z,49.88
2022-10-16T14:07:30.800Z,49.54
2022-10-16T14:10:19.580Z,49.88
2022-10-16T14:12:46.813Z,49.86
2022-10-16T14:15:18.492Z,50.01
2022-10-16T14:17:48.749Z,50.27
2022-10-16T14:20:16.952Z,50.00
2022-10-16T14:22:44.309Z,49.00
2022-10-16T14:25:20.125Z,48.83
2022-10-16T14:27:57.842Z,47.95
2022-10-16T14:30:24.481Z,47.87
2022-10-16T14:33:01.642Z,47.58
2022-10-16T14:35:39.954Z,47.48
2022-10-16T14:38:16.831Z,47.47
2022-10-16T14:40:49.020Z,46.07
2022-10-16T14:43:27.248Z,45.82
2022-10-16T14:45:56.777Z,45.51
2022-10-16T14:48:23.677Z,46.66
2022-10-16T14:50:50.419Z,47.22
2022-10-16T14:53:17.084Z,48.25
2022-10-16T14:55:44.322Z,48.69
2022-10-16T14:58:24.183Z,49.14
2022-10-16T15:00:50.627Z,50.19
2022-10-16T15:03:17.149Z,50.82
2022-10-16T15:05:43.572Z,52.81
2022-10-16T15:08:10.137Z,53.38
2022-10-16T15:10:40.507Z,54.55
2022-10-16T15:13:06.927Z,54.92
2022-10-16T15:15:40.109Z,56.49
2022-10-16T15:18:06.500Z,56.76
2022-10-16T15:20:38.153Z,56.99
2022-10-16T15:23:10.712Z,57.18
2022-10-16T15:25:54.362Z,57.63
2022-10-16T15:28:22.045Z,57.91
2022-10-16T15:30:51.536Z,58.50
2022-10-16T15:33:20.276Z,59.12
2022-10-16T15:35:50.887Z,59.44
2022-10-16T15:38:19.482Z,60.52
2022-10-16T15:40:47.999Z,61.34
2022-10-16T15:43:14.468Z,61.68
2022-10-16T15:45:41.076Z,62.43
2022-10-16T15:48:11.116Z,63.00
2022-10-16T15:50:38.839Z,63.47
2022-10-16T15:53:05.298Z,64.04
2022-10-16T15:55:31.756Z,64.37
2022-10-16T15:57:58.144Z,64.98
2022-10-16T16:00:26.455Z,65.43
2022-10-16T16:02:54.690Z,65.94
2022-10-16T16:05:22.977Z,66.32
2022-10-16T16:07:49.637Z,66.81
2022-10-16T16:10:16.628Z,67.05
2022-10-16T16:12:43.101Z,67.61
2022-10-16T16:15:10.780Z,68.13
2022-10-16T16:17:37.922Z,68.55
2022-10-16T16:20:06.011Z,69.04
2022-10-16T16:22:32.495Z,69.40
2022-10-16T16:24:58.922Z,69.96
2022-10-16T16:27:30.711Z,69.92
2022-10-16T16:29:57.422Z,70.64
2022-10-16T16:32:23.839Z,71.09
2022-10-16T16:34:50.232Z,71.47
2022-10-16T16:37:16.931Z,71.63
2022-10-16T16:39:43.578Z,71.88
2022-10-16T16:42:11.032Z,71.98
2022-10-16T16:44:37.659Z,72.45
2022-10-16T16:47:05.641Z,72.75
2022-10-16T16:49:32.762Z,73.09
2022-10-16T16:51:59.417Z,73.20
2022-10-16T16:54:25.958Z,73.47
2022-10-16T16:56:52.472Z,73.91
2022-10-16T16:59:21.164Z,74.04
2022-10-16T17:01:49.960Z,74.40
2022-10-16T17:04:19.742Z,74.56
2022-10-16T17:06:46.489Z,74.92
2022-10-16T17:09:14.215Z,74.68
2022-10-16T17:11:42.453Z,75.13
2022-10-16T17:14:09.093Z,75.23
2022-10-16T17:16:37.753Z,75.43
2022-10-16T17:19:09.464Z,75.47
2022-10-16T17:21:36.508Z,75.79
2022-10-16T17:24:03.732Z,75.80
2022-10-16T17:26:30.529Z,75.96
2022-10-16T17:28:59.386Z,76.00
2022-10-16T17:31:29.369Z,76.13
2022-10-16T17:33:56.379Z,76.48
2022-10-16T17:36:23.620Z,76.54
2022-10-16T17:38:50.147Z,76.49
2022-10-16T17:41:19.383Z,76.74
2022-10-16T17:43:46.658Z,76.80
2022-10-16T17:46:14.611Z,77.01
2022-10-16T17:48:44.205Z,77.00
2022-10-16T17:51:13.309Z,77.23
2022-10-16T17:53:40.147Z,77.58
2022-10-16T17:56:12.013Z,77.34
2022-10-16T17:58:39.223Z,77.58
2022-10-16T18:01:22.353Z,77.79
2022-10-16T18:03:51.086Z,78.02
2022-10-16T18:06:22.833Z,78.19
2022-10-16T18:08:51.105Z,78.32
2022-10-16T18:11:18.110Z,78.66
2022-10-16T18:13:44.519Z,78.92
2022-10-16T18:16:13.711Z,79.38
2022-10-16T18:18:41.667Z,79.63
2022-10-16T18:21:11.023Z,79.93
2022-10-16T18:23:39.020Z,80.15
2022-10-16T18:26:07.072Z,80.40
2022-10-16T18:28:33.794Z,81.01
2022-10-16T18:31:06.219Z,81.21
2022-10-16T18:33:33.560Z,81.64
2022-10-16T18:36:05.035Z,82.05
2022-10-16T18:38:31.675Z,82.14
2022-10-16T18:40:58.463Z,82.47
2022-10-16T18:43:24.832Z,82.58
2022-10-16T18:46:04.388Z,83.06
2022-10-16T18:48:32.004Z,83.34
2022-10-16T18:51:10.197Z,83.41
2022-10-16T18:53:38.111Z,83.57
2022-10-16T18:56:04.976Z,83.93
2022-10-16T18:58:31.841Z,83.82
2022-10-16T19:01:04.557Z,84.14
2022-10-16T19:03:31.671Z,84.32
2022-10-16T19:06:08.200Z,84.25
2022-10-16T19:08:38.716Z,84.48
2022-10-16T19:11:10.484Z,84.55
2022-10-16T19:13:36.948Z,84.96
2022-10-16T19:16:19.428Z,85.05
2022-10-16T19:18:47.328Z,85.22
2022-10-16T19:21:15.037Z,85.18
2022-10-16T19:23:42.130Z,85.44
2022-10-16T19:26:13.966Z,85.74
2022-10-16T19:28:41.045Z,85.69
2022-10-16T19:31:13.144Z,85.72
2022-10-16T19:33:40.804Z,85.90
2022-10-16T19:36:18.455Z,85.76
2022-10-16T19:38:46.777Z,85.66
2022-10-16T19:41:15.890Z,85.49
2022-10-16T19:43:43.384Z,85.53
2022-10-16T19:46:12.792Z,85.65
2022-10-16T19:48:40.298Z,85.40
2022-10-16T19:51:10.271Z,85.33
2022-10-16T19:53:36.693Z,85.50
2022-10-16T19:56:21.948Z,85.46
2022-10-16T19:58:49.222Z,85.47
2022-10-16T20:01:16.613Z,85.34
2022-10-16T20:03:43.900Z,85.45
2022-10-16T20:06:10.719Z,85.47
2022-10-16T20:08:38.394Z,85.62
2022-10-16T20:11:06.293Z,85.57
2022-10-16T20:13:34.075Z,85.59
2022-10-16T20:16:06.064Z,85.59
2022-10-16T20:18:32.829Z,85.93
2022-10-16T20:20:59.306Z,86.26
2022-10-16T20:23:26.137Z,86.26
2022-10-16T20:25:52.911Z,86.55
2022-10-16T20:28:21.459Z,86.01
2022-10-16T20:30:50.533Z,86.53
2022-10-16T20:33:17.832Z,86.34
2022-10-16T20:35:49.197Z,86.32
2022-10-16T20:38:17.574Z,86.35
2022-10-16T20:40:46.802Z,86.29
2022-10-16T20:43:15.872Z,85.72
2022-10-16T20:45:42.375Z,85.65
2022-10-16T20:48:11.128Z,85.62
2022-10-16T20:50:37.957Z,86.28
2022-10-16T20:53:04.353Z,86.20
2022-10-16T20:55:31.297Z,86.68
2022-10-16T20:57:57.726Z,85.78
2022-10-16T21:00:24.107Z,85.68
2022-10-16T21:02:51.665Z,86.04
2022-10-16T21:05:18.816Z,86.34
2022-10-16T21:07:45.939Z,86.07
2022-10-16T21:10:12.937Z,85.74
2022-10-16T21:12:39.352Z,85.78
2022-10-16T21:15:15.165Z,85.63
2022-10-16T21:17:42.235Z,85.51
2022-10-16T21:20:09.049Z,85.80
2022-10-16T21:22:35.463Z,86.04
2022-10-16T21:25:01.898Z,86.04
2022-10-16T21:27:28.267Z,86.32
2022-10-16T21:29:54.713Z,86.60
2022-10-16T21:32:21.418Z,86.48
2022-10-16T21:34:48.205Z,86.33
2022-10-16T21:37:14.721Z,86.30
2022-10-16T21:39:41.404Z,85.89
2022-10-16T21:42:07.843Z,85.96
2022-10-16T21:44:34.244Z,86.14
2022-10-16T21:47:00.624Z,86.17
2022-10-16T21:49:27.234Z,86.22
2022-10-16T21:51:53.658Z,85.94
2022-10-16T21:54:22.488Z,86.35
2022-10-16T21:56:48.946Z,85.92
2022-10-16T21:59:15.679Z,86.21
2022-10-16T22:01:43.043Z,86.32
2022-10-16T22:04:14.319Z,86.04
2022-10-16T22:06:40.952Z,86.15
2022-10-16T22:09:07.655Z,85.90
2022-10-16T22:11:36.994Z,86.07
2022-10-16T22:14:13.222Z,86.49
2022-10-16T22:16:39.932Z,86.20
2022-10-16T22:19:07.200Z,86.62
2022-10-16T22:21:38.943Z,86.40
2022-10-16T22:24:06.412Z,86.61
2022-10-16T22:26:33.776Z,86.66
2022-10-16T22:29:00.258Z,86.38
2022-10-16T22:31:27.008Z,86.19
2022-10-16T22:34:01.825Z,86.47
2022-10-16T22:36:28.773Z,86.34
2022-10-16T22:38:55.801Z,86.10
2022-10-16T22:41:22.956Z,86.27
2022-10-16T22:43:49.726Z,86.02
2022-10-16T22:46:24.387Z,85.70
2022-10-16T22:48:51.533Z,85.61
2022-10-16T22:51:18.479Z,85.47
2022-10-16T22:53:46.626Z,85.21
2022-10-16T22:56:13.841Z,85.21
2022-10-16T22:58:40.273Z,84.71
2022-10-16T23:01:34.708Z,84.20
2022-10-16T23:04:01.533Z,84.11
2022-10-16T23:06:30.044Z,84.10
2022-10-16T23:08:59.239Z,83.83
2022-10-16T23:11:27.739Z,83.44
2022-10-16T23:13:54.761Z,83.46
2022-10-16T23:16:22.963Z,83.30
2022-10-16T23:18:50.165Z,83.15
2022-10-16T23:21:20.831Z,82.90
2022-10-16T23:23:47.698Z,82.83
2022-10-16T23:26:17.433Z,82.72
2022-10-16T23:28:44.150Z,82.52
2022-10-16T23:31:12.675Z,82.53
2022-10-16T23:33:39.936Z,82.05
2022-10-16T23:36:08.860Z,81.10
2022-10-16T23:38:35.467Z,80.38
2022-10-16T23:41:02.202Z,80.09
2022-10-16T23:43:29.011Z,79.97
2022-10-16T23:45:55.473Z,79.69
2022-10-16T23:48:21.935Z,79.76
2022-10-16T23:50:48.318Z,79.80
2022-10-16T23:53:15.075Z,79.73
2022-10-16T23:55:41.769Z,79.53
2022-10-16T23:58:08.457Z,79.50
